Time;durP1;ratioP1;P1;durP2;ratioP2;P2;SDS_P1;SDS_P2;PMS_P1;PMS_P2;Temp;Humidity;BMP_temperature;BMP_pressure;BME280_temperature;BME280_humidity;BME280_pressure;Samples;Min_cycle;Max_cycle;Signal;HPM_P1;HPM_P2
2022/06/15 00:00:45;;;;;;;159.00;152.80;;;11.30;99.90;;;;;;5058745;28;20451;-86
2022/06/15 00:03:14;;;;;;;147.60;142.20;;;11.10;99.90;;;;;;5058113;28;20978;-86
2022/06/15 00:05:43;;;;;;;170.73;164.23;;;11.00;99.90;;;;;;5059194;28;20482;-86
2022/06/15 00:08:11;;;;;;;146.30;140.60;;;11.00;99.90;;;;;;5057970;28;20545;-84
2022/06/15 00:10:39;;;;;;;142.13;136.43;;;11.00;99.90;;;;;;5058666;28;20447;-86
2022/06/15 00:13:07;;;;;;;123.80;118.43;;;11.00;99.90;;;;;;5058335;28;20452;-86
2022/06/15 00:15:34;;;;;;;117.23;112.57;;;10.80;99.90;;;;;;5058446;28;20459;-86
2022/06/15 00:18:00;;;;;;;152.47;146.63;;;10.80;99.90;;;;;;5058052;28;20475;-86
2022/06/15 00:20:27;;;;;;;183.83;176.37;;;10.70;99.90;;;;;;5057536;28;20451;-86
2022/06/15 00:22:55;;;;;;;151.87;146.23;;;10.70;99.90;;;;;;5057643;28;20833;-86
2022/06/15 00:25:22;;;;;;;138.37;132.83;;;10.80;99.90;;;;;;5057769;28;20448;-85
2022/06/15 00:27:49;;;;;;;138.43;132.70;;;10.70;99.90;;;;;;5057789;28;20987;-84
2022/06/15 00:30:15;;;;;;;148.00;142.20;;;10.60;99.90;;;;;;5057217;28;20463;-86
2022/06/15 00:32:42;;;;;;;204.80;197.07;;;10.70;99.90;;;;;;5058228;28;20447;-86
2022/06/15 00:35:09;;;;;;;263.60;254.27;;;10.70;99.90;;;;;;5057724;28;20451;-85
2022/06/15 00:37:36;;;;;;;295.63;285.07;;;10.70;99.90;;;;;;5057541;28;20475;-85
2022/06/15 00:40:07;;;;;;;231.40;223.33;;;10.80;99.90;;;;;;5057689;28;20478;-86
2022/06/15 00:42:34;;;;;;;186.67;179.70;;;10.70;99.90;;;;;;5057352;28;20459;-85
2022/06/15 00:45:02;;;;;;;232.47;223.70;;;10.50;99.90;;;;;;5058140;28;20696;-84
2022/06/15 00:47:31;;;;;;;347.50;334.30;;;10.40;99.90;;;;;;5057624;28;20528;-86
2022/06/15 00:50:04;;;;;;;363.70;350.20;;;10.50;99.90;;;;;;5056388;28;20459;-85
2022/06/15 00:52:36;;;;;;;351.50;338.07;;;10.50;99.90;;;;;;5057179;28;20466;-86
2022/06/15 00:55:21;;;;;;;373.87;359.77;;;10.40;99.90;;;;;;5057621;28;20447;-85
2022/06/15 00:57:48;;;;;;;327.47;315.60;;;10.30;99.90;;;;;;5056871;28;20856;-85
2022/06/15 01:00:16;;;;;;;275.77;265.37;;;10.20;99.90;;;;;;5056475;28;20459;-85
2022/06/15 01:02:43;;;;;;;278.80;268.30;;;10.10;99.90;;;;;;5056791;28;20448;-86
2022/06/15 01:05:15;;;;;;;247.97;238.57;;;10.10;99.90;;;;;;5057670;28;20490;-86
2022/06/15 01:08:04;;;;;;;314.37;302.60;;;10.00;99.90;;;;;;5056795;28;20467;-85
2022/06/15 01:10:49;;;;;;;397.77;382.07;;;10.00;99.90;;;;;;5056676;28;20458;-86
2022/06/15 01:13:30;;;;;;;379.10;364.53;;;10.00;99.90;;;;;;5057001;28;20451;-86
2022/06/15 01:16:03;;;;;;;440.30;422.83;;;10.00;99.90;;;;;;5055712;28;20948;-86
2022/06/15 01:18:39;;;;;;;487.27;466.83;;;9.90;99.90;;;;;;5056111;28;20857;-86
2022/06/15 01:21:17;;;;;;;458.27;438.97;;;9.90;99.90;;;;;;5057264;28;20451;-85
2022/06/15 01:24:00;;;;;;;514.27;491.27;;;9.80;99.90;;;;;;5058309;28;20451;-85
2022/06/15 01:26:51;;;;;;;460.07;441.07;;;9.90;99.90;;;;;;5058076;28;20467;-84
2022/06/15 01:29:44;;;;;;;427.70;410.40;;;9.80;99.90;;;;;;5056709;28;20452;-85
2022/06/15 01:32:19;;;;;;;404.90;388.53;;;9.70;99.90;;;;;;5057560;28;20447;-85
2022/06/15 01:34:55;;;;;;;477.90;457.07;;;9.70;99.90;;;;;;5056711;28;20451;-86
2022/06/15 01:37:28;;;;;;;555.43;530.13;;;9.80;99.90;;;;;;5055604;28;20485;-86
2022/06/15 01:39:59;;;;;;;562.77;536.87;;;9.70;99.90;;;;;;5055964;28;20476;-85
2022/06/15 01:42:30;;;;;;;546.80;522.73;;;9.70;99.90;;;;;;5055702;28;20478;-85
2022/06/15 01:45:02;;;;;;;570.43;543.87;;;9.70;99.90;;;;;;5056765;28;20948;-86
2022/06/15 01:47:33;;;;;;;581.00;553.80;;;9.70;99.90;;;;;;5056595;28;20483;-85
2022/06/15 01:50:04;;;;;;;648.43;614.47;;;9.60;99.90;;;;;;5055822;28;20455;-86
2022/06/15 01:52:34;;;;;;;649.93;616.13;;;9.70;99.90;;;;;;5055817;28;20460;-86
2022/06/15 01:55:07;;;;;;;649.13;615.47;;;9.70;99.90;;;;;;5056482;28;20978;-86
2022/06/15 01:57:37;;;;;;;671.23;634.67;;;9.70;99.90;;;;;;5055697;28;20992;-86
2022/06/15 02:00:07;;;;;;;653.00;618.60;;;9.70;99.90;;;;;;5055624;28;20479;-86
2022/06/15 02:02:41;;;;;;;673.77;637.37;;;9.70;99.90;;;;;;5056147;28;20534;-86
2022/06/15 02:05:13;;;;;;;711.50;670.90;;;9.60;99.90;;;;;;5055938;28;20450;-86
2022/06/15 02:07:48;;;;;;;713.53;673.83;;;9.60;99.90;;;;;;5056390;28;20478;-86
2022/06/15 02:10:22;;;;;;;677.63;641.83;;;9.50;99.90;;;;;;5055424;28;20448;-85
2022/06/15 02:12:55;;;;;;;650.77;617.00;;;9.40;99.90;;;;;;5055940;28;20455;-86
2022/06/15 02:15:26;;;;;;;702.87;665.33;;;9.30;99.90;;;;;;5055644;28;20452;-86
2022/06/15 02:17:57;;;;;;;718.57;679.37;;;9.30;99.90;;;;;;5055480;28;20536;-85
2022/06/15 02:20:27;;;;;;;721.20;681.30;;;9.30;99.90;;;;;;5055387;28;20549;-86
2022/06/15 02:22:57;;;;;;;718.63;679.07;;;9.30;99.90;;;;;;5056284;28;20454;-85
2022/06/15 02:25:27;;;;;;;689.27;652.40;;;9.20;99.90;;;;;;5055627;28;20452;-85
2022/06/15 02:27:55;;;;;;;750.63;705.70;;;9.10;99.90;;;;;;5056066;28;20475;-85
2022/06/15 02:30:24;;;;;;;762.40;717.20;;;9.20;99.90;;;;;;5056006;28;20451;-84
2022/06/15 02:32:52;;;;;;;776.83;729.17;;;9.20;99.90;;;;;;5055945;28;20470;-86
2022/06/15 02:35:21;;;;;;;815.00;762.17;;;9.10;99.90;;;;;;5056171;28;20517;-86
2022/06/15 02:37:50;;;;;;;836.03;780.13;;;9.30;99.90;;;;;;5055282;28;20502;-86
2022/06/15 02:40:20;;;;;;;833.47;778.10;;;9.30;99.90;;;;;;5055382;28;20478;-86
2022/06/15 02:42:47;;;;;;;821.80;768.37;;;9.40;99.90;;;;;;5055877;28;20459;-86
2022/06/15 02:45:18;;;;;;;797.27;745.20;;;9.40;99.90;;;;;;5055515;28;20454;-86
2022/06/15 02:47:45;;;;;;;812.60;758.07;;;9.40;99.90;;;;;;5080708;22;20544;-80
2022/06/15 02:50:16;;;;;;;823.67;770.47;;;9.40;99.90;;;;;;5055074;28;20446;-81
2022/06/15 02:52:49;;;;;;;813.93;761.80;;;9.40;99.90;;;;;;5035875;28;20456;-81
2022/06/15 02:55:17;;;;;;;821.87;770.27;;;9.40;99.90;;;;;;5036133;28;20456;-81
2022/06/15 02:57:47;;;;;;;788.70;741.13;;;9.30;99.90;;;;;;5067595;28;20466;-81
2022/06/15 03:00:16;;;;;;;778.73;733.37;;;9.30;99.90;;;;;;5075409;28;20470;-82
2022/06/15 03:02:43;;;;;;;838.63;787.90;;;9.30;99.90;;;;;;5075379;28;20446;-81
2022/06/15 03:05:09;;;;;;;849.57;795.47;;;9.30;99.90;;;;;;5076280;28;20834;-81
2022/06/15 03:07:36;;;;;;;854.80;799.87;;;9.30;99.90;;;;;;5075652;28;20467;-80
2022/06/15 03:10:06;;;;;;;844.33;788.03;;;9.40;99.90;;;;;;5074924;28;20461;-81
2022/06/15 03:12:32;;;;;;;850.80;794.40;;;9.30;99.90;;;;;;5075603;28;20454;-81
2022/06/15 03:14:59;;;;;;;860.70;802.80;;;9.30;99.90;;;;;;5076595;28;20454;-81
2022/06/15 03:17:26;;;;;;;857.93;799.47;;;9.30;99.90;;;;;;5075769;28;20467;-82
2022/06/15 03:19:53;;;;;;;853.57;794.77;;;9.30;99.90;;;;;;5076306;28;20470;-81
2022/06/15 03:22:19;;;;;;;863.90;805.50;;;9.30;99.90;;;;;;5076199;28;20447;-80
2022/06/15 03:24:46;;;;;;;871.47;813.17;;;9.30;99.90;;;;;;5075135;28;20465;-82
2022/06/15 03:27:14;;;;;;;872.37;813.17;;;9.30;99.90;;;;;;5073177;28;20469;-81
2022/06/15 03:29:42;;;;;;;850.70;793.90;;;9.20;99.90;;;;;;5071374;28;20443;-80
2022/06/15 03:32:12;;;;;;;848.47;789.60;;;9.20;99.90;;;;;;5070312;28;20503;-81
2022/06/15 03:34:38;;;;;;;852.70;793.73;;;9.20;99.90;;;;;;5069107;28;20446;-81
2022/06/15 03:37:05;;;;;;;856.53;797.87;;;9.20;99.90;;;;;;5071482;28;20489;-81
2022/06/15 03:39:32;;;;;;;855.60;797.30;;;9.30;99.90;;;;;;5076734;28;20473;-80
2022/06/15 03:42:08;;;;;;;863.67;803.57;;;9.30;99.90;;;;;;5078948;28;20469;-81
2022/06/15 03:44:36;;;;;;;853.87;793.67;;;9.20;99.90;;;;;;5076025;28;20450;-80
2022/06/15 03:47:03;;;;;;;859.20;799.60;;;9.30;99.90;;;;;;5079379;28;20482;-83
2022/06/15 03:49:30;;;;;;;854.93;796.60;;;9.30;99.90;;;;;;5077939;28;20453;-81
2022/06/15 03:51:57;;;;;;;841.67;784.67;;;9.30;99.90;;;;;;5077324;28;20450;-81
2022/06/15 03:54:23;;;;;;;828.93;774.33;;;9.30;99.90;;;;;;5078485;28;20450;-81
2022/06/15 03:56:50;;;;;;;799.00;749.97;;;9.30;99.90;;;;;;5078813;28;20474;-79
2022/06/15 03:59:17;;;;;;;817.30;767.63;;;9.30;99.90;;;;;;5074273;28;20989;-80
2022/06/15 04:01:45;;;;;;;838.57;787.07;;;9.40;99.90;;;;;;5064904;28;20452;-80
2022/06/15 04:04:12;;;;;;;834.57;782.10;;;9.40;99.90;;;;;;5057690;28;20455;-80
2022/06/15 04:06:38;;;;;;;830.37;777.17;;;9.50;99.90;;;;;;5055543;28;20463;-79
2022/06/15 04:09:04;;;;;;;821.80;769.27;;;9.50;99.90;;;;;;5056352;28;20811;-80
2022/06/15 04:14:16;;;;;;;840.90;785.70;;;9.60;99.90;;;;;;5055489;28;20284;-80
2022/06/15 04:16:43;;;;;;;838.60;784.00;;;9.70;99.90;;;;;;5057247;28;20495;-79
2022/06/15 04:19:11;;;;;;;852.67;797.83;;;9.70;99.90;;;;;;5067602;28;21005;-80
2022/06/15 04:21:38;;;;;;;842.17;786.97;;;9.70;99.90;;;;;;5075164;28;20486;-79
2022/06/15 04:24:07;;;;;;;841.57;787.87;;;9.80;99.90;;;;;;5076068;28;20469;-80
2022/06/15 04:26:33;;;;;;;830.10;778.70;;;9.90;99.90;;;;;;5077389;28;20975;-79
2022/06/15 04:29:00;;;;;;;843.03;790.57;;;9.90;99.90;;;;;;5075456;28;20454;-80
2022/06/15 04:31:27;;;;;;;852.30;796.67;;;10.00;99.90;;;;;;5076365;28;20982;-81
2022/06/15 04:33:53;;;;;;;855.40;799.53;;;10.10;99.90;;;;;;5076315;28;20829;-79
2022/06/15 04:36:23;;;;;;;853.63;796.37;;;10.10;99.90;;;;;;5074611;28;20442;-79
2022/06/15 04:38:50;;;;;;;859.23;802.47;;;10.30;99.90;;;;;;5073093;28;20473;-80
2022/06/15 04:41:17;;;;;;;877.63;819.63;;;10.30;99.90;;;;;;5076436;28;20458;-79
2022/06/15 04:43:43;;;;;;;866.10;808.60;;;10.50;99.90;;;;;;5076313;28;20963;-80
2022/06/15 04:46:10;;;;;;;863.33;805.13;;;10.50;99.90;;;;;;5075129;28;20450;-79
2022/06/15 04:48:37;;;;;;;871.93;813.10;;;10.70;99.90;;;;;;5076086;28;20504;-79
2022/06/15 04:51:12;;;;;;;869.10;810.80;;;10.70;99.90;;;;;;5075715;28;20450;-80
2022/06/15 04:53:40;;;;;;;877.80;817.40;;;10.90;99.90;;;;;;5073805;28;20457;-80
2022/06/15 04:56:07;;;;;;;889.57;826.87;;;11.00;99.90;;;;;;5076571;28;20446;-79
2022/06/15 04:58:34;;;;;;;887.83;824.23;;;11.10;99.90;;;;;;5075915;28;20493;-79
2022/06/15 05:01:02;;;;;;;883.20;819.73;;;11.30;99.90;;;;;;5076574;28;20475;-79
2022/06/15 05:03:29;;;;;;;887.20;823.20;;;11.30;99.90;;;;;;5075678;28;20462;-79
2022/06/15 05:05:56;;;;;;;896.37;830.67;;;11.50;99.90;;;;;;5075847;28;20458;-79
2022/06/15 05:08:23;;;;;;;899.70;834.80;;;11.50;99.90;;;;;;5074273;28;20474;-79
2022/06/15 05:10:51;;;;;;;866.13;803.80;;;11.70;99.90;;;;;;5076371;28;20447;-79
2022/06/15 05:13:21;;;;;;;871.37;810.07;;;11.80;99.90;;;;;;5086218;28;20451;-79
2022/06/15 05:15:48;;;;;;;852.07;791.60;;;11.90;99.90;;;;;;5082359;28;20537;-79
2022/06/15 05:18:14;;;;;;;716.13;673.90;;;12.20;99.90;;;;;;5079674;28;20896;-83
2022/06/15 05:20:42;;;;;;;417.50;397.57;;;12.70;99.90;;;;;;5074308;28;20482;-84
2022/06/15 05:23:12;;;;;;;96.80;92.53;;;13.10;99.90;;;;;;5072965;28;20549;-84
2022/06/15 05:25:39;;;;;;;17.87;12.63;;;13.70;99.90;;;;;;5073804;28;20829;-85
2022/06/15 05:28:08;;;;;;;11.07;6.60;;;14.20;99.90;;;;;;5072341;28;20482;-82
2022/06/15 05:30:35;;;;;;;11.77;6.40;;;15.10;99.90;;;;;;5073056;28;20447;-84
2022/06/15 05:33:02;;;;;;;13.23;6.10;;;15.80;96.40;;;;;;5072985;28;20834;-84
2022/06/15 05:35:29;;;;;;;12.53;5.53;;;16.10;90.90;;;;;;5073380;28;20968;-84
2022/06/15 05:37:56;;;;;;;8.37;5.20;;;17.20;86.90;;;;;;5073700;28;20471;-85
2022/06/15 05:40:23;;;;;;;8.90;6.40;;;18.00;81.10;;;;;;5069933;28;20485;-85
2022/06/15 05:42:49;;;;;;;14.93;5.50;;;18.30;68.50;;;;;;5069810;28;20489;-84
2022/06/15 05:45:18;;;;;;;21.10;5.50;;;18.40;63.70;;;;;;5072675;28;20464;-85
2022/06/15 05:47:44;;;;;;;11.20;5.47;;;19.10;61.00;;;;;;5071529;28;20473;-85
2022/06/15 05:50:13;;;;;;;7.43;5.00;;;19.70;57.50;;;;;;5069750;28;20449;-85
2022/06/15 05:52:40;;;;;;;9.33;5.40;;;20.00;54.20;;;;;;5070353;28;20932;-85
2022/06/15 05:55:08;;;;;;;8.57;5.53;;;20.70;53.90;;;;;;5072223;28;20513;-85
2022/06/15 05:57:35;;;;;;;9.10;4.87;;;20.50;49.30;;;;;;5075427;28;20987;-84
2022/06/15 06:00:03;;;;;;;8.63;5.20;;;20.30;46.30;;;;;;5080253;28;20522;-83
2022/06/15 06:02:33;;;;;;;9.83;5.27;;;20.60;45.80;;;;;;5079360;28;20428;-84
2022/06/15 06:05:01;;;;;;;13.63;6.00;;;20.60;47.10;;;;;;5076422;28;20460;-84
2022/06/15 06:07:28;;;;;;;9.63;5.43;;;21.20;44.10;;;;;;5083067;28;20540;-83
2022/06/15 06:09:56;;;;;;;9.63;5.60;;;21.40;45.70;;;;;;5078745;28;20426;-83
2022/06/15 06:12:23;;;;;;;14.53;6.00;;;21.50;39.30;;;;;;5080875;28;20453;-84
2022/06/15 06:14:51;;;;;;;10.40;6.07;;;21.30;37.80;;;;;;5079125;28;20452;-83
2022/06/15 06:17:18;;;;;;;9.77;5.43;;;20.90;37.70;;;;;;5081775;28;20477;-83
2022/06/15 06:19:46;;;;;;;13.03;4.80;;;20.80;43.20;;;;;;5079212;28;20847;-83
2022/06/15 06:22:12;;;;;;;11.47;5.70;;;21.30;41.00;;;;;;5079242;28;20453;-83
2022/06/15 06:24:39;;;;;;;14.57;6.07;;;21.60;35.00;;;;;;5076676;28;20527;-84
2022/06/15 06:27:08;;;;;;;10.50;5.63;;;21.70;39.10;;;;;;5075283;28;20447;-83
2022/06/15 06:29:35;;;;;;;10.50;5.47;;;21.80;34.50;;;;;;5075797;28;20457;-83
2022/06/15 06:32:03;;;;;;;8.90;5.50;;;21.60;32.90;;;;;;5075593;28;20457;-84
2022/06/15 06:34:30;;;;;;;11.97;5.27;;;21.70;32.50;;;;;;5077899;28;20472;-82
2022/06/15 06:36:59;;;;;;;11.83;5.67;;;22.00;31.90;;;;;;5075973;28;20530;-83
2022/06/15 06:39:29;;;;;;;11.30;5.63;;;22.10;31.20;;;;;;5074894;28;20456;-82
2022/06/15 06:41:57;;;;;;;13.63;5.77;;;22.50;30.00;;;;;;5074268;28;20827;-82
2022/06/15 06:44:24;;;;;;;11.57;5.73;;;22.20;28.60;;;;;;5075134;28;20432;-83
2022/06/15 06:46:52;;;;;;;8.57;5.30;;;22.00;34.70;;;;;;5076118;28;20481;-84
2022/06/15 06:49:20;;;;;;;10.00;5.63;;;21.70;30.10;;;;;;5077670;28;20839;-84
2022/06/15 06:51:49;;;;;;;13.73;6.27;;;22.00;34.60;;;;;;5076901;28;20507;-84
2022/06/15 06:54:19;;;;;;;12.13;5.43;;;22.20;29.30;;;;;;5075228;28;20453;-84
2022/06/15 06:56:46;;;;;;;12.20;6.60;;;22.70;29.00;;;;;;5075699;28;21013;-83
2022/06/15 06:59:14;;;;;;;8.63;5.60;;;22.30;28.70;;;;;;5072808;28;20420;-83
2022/06/15 07:01:42;;;;;;;14.83;6.27;;;22.60;28.90;;;;;;5075507;28;20474;-83
2022/06/15 07:04:11;;;;;;;10.27;6.03;;;22.20;27.40;;;;;;5075434;28;20454;-82
2022/06/15 07:06:38;;;;;;;16.97;7.20;;;22.60;27.10;;;;;;5075528;28;20537;-85
2022/06/15 07:09:05;;;;;;;12.87;6.40;;;23.00;25.90;;;;;;5073789;28;20940;-81
2022/06/15 07:11:34;;;;;;;13.30;7.77;;;22.90;25.40;;;;;;5074608;28;20420;-81
2022/06/15 07:14:01;;;;;;;11.60;6.00;;;22.70;23.60;;;;;;5075088;28;20453;-82
2022/06/15 07:16:28;;;;;;;10.37;6.13;;;22.40;24.20;;;;;;5076993;28;20454;-80
2022/06/15 07:18:55;;;;;;;15.70;6.57;;;22.80;24.20;;;;;;5076584;28;20482;-83
2022/06/15 07:21:23;;;;;;;13.93;5.93;;;23.60;22.40;;;;;;5078124;28;20478;-81
2022/06/15 07:23:52;;;;;;;13.30;6.13;;;23.80;22.50;;;;;;5080154;28;20454;-80
2022/06/15 07:26:21;;;;;;;11.90;5.20;;;23.50;21.60;;;;;;5075611;28;20458;-81
2022/06/15 07:28:49;;;;;;;10.50;4.50;;;23.30;21.30;;;;;;5077172;28;20825;-81
2022/06/15 07:31:22;;;;;;;10.00;5.33;;;23.50;20.80;;;;;;5077786;28;20446;-81
2022/06/15 07:33:48;;;;;;;10.97;4.10;;;23.50;22.20;;;;;;5077762;28;20458;-81
2022/06/15 07:36:16;;;;;;;9.87;4.73;;;23.40;20.10;;;;;;5077564;28;21106;-81
2022/06/15 07:38:43;;;;;;;7.50;4.40;;;23.70;19.30;;;;;;5075983;28;20474;-81
2022/06/15 07:41:10;;;;;;;8.00;3.90;;;24.50;15.70;;;;;;5064395;28;20479;-81
2022/06/15 07:43:39;;;;;;;10.37;4.57;;;24.50;17.70;;;;;;5079005;28;20446;-82
2022/06/15 07:46:07;;;;;;;9.33;4.17;;;24.20;12.60;;;;;;5077403;28;20433;-82
2022/06/15 07:51:31;;;;;;;9.97;3.60;;;24.30;14.60;;;;;;5061250;28;20439;-84
2022/06/15 07:53:59;;;;;;;6.17;2.93;;;24.60;12.80;;;;;;5080693;28;20798;-82
2022/06/15 07:56:26;;;;;;;7.00;3.53;;;25.00;12.20;;;;;;5078624;28;20454;-82
2022/06/15 07:58:53;;;;;;;7.27;3.30;;;24.60;13.70;;;;;;5079485;28;20951;-82
2022/06/15 08:01:22;;;;;;;7.33;3.40;;;24.50;14.40;;;;;;5080448;28;20474;-82
2022/06/15 08:03:49;;;;;;;11.60;3.80;;;24.50;11.80;;;;;;5080467;28;20450;-82
2022/06/15 08:06:16;;;;;;;7.57;3.47;;;24.90;13.80;;;;;;5082308;28;20442;-84
2022/06/15 08:08:44;;;;;;;10.55;3.78;;;24.70;15.60;;;;;;5076988;28;20959;-84
2022/06/15 08:11:11;;;;;;;10.27;3.30;;;25.10;13.20;;;;;;5079203;28;20196;-82
2022/06/15 08:13:38;;;;;;;7.80;3.70;;;25.20;15.90;;;;;;5079110;28;20482;-82
2022/06/15 08:16:06;;;;;;;12.70;3.60;;;25.10;13.60;;;;;;5081338;28;20462;-82
2022/06/15 08:18:39;;;;;;;11.40;3.80;;;25.20;12.40;;;;;;5080136;28;20469;-82
2022/06/15 08:21:16;;;;;;;9.70;3.13;;;25.10;10.00;;;;;;5081657;28;20850;-81
2022/06/15 08:23:45;;;;;;;9.57;3.40;;;25.00;11.20;;;;;;5081456;28;20461;-82
2022/06/15 08:26:15;;;;;;;7.27;3.10;;;25.10;15.60;;;;;;5080012;28;20529;-82
2022/06/15 08:28:46;;;;;;;7.27;3.87;;;25.40;13.40;;;;;;5081062;28;20477;-81
2022/06/15 08:31:13;;;;;;;9.40;3.10;;;26.00;7.60;;;;;;5081315;28;20457;-81
2022/06/15 08:33:41;;;;;;;8.03;3.30;;;25.80;7.30;;;;;;5082955;28;20450;-82
2022/06/15 08:36:10;;;;;;;12.80;4.00;;;25.80;7.30;;;;;;5081358;28;20823;-81
2022/06/15 08:38:38;;;;;;;8.67;3.00;;;25.60;6.20;;;;;;5079879;28;20449;-82
2022/06/15 08:41:10;;;;;;;12.70;3.67;;;26.20;5.30;;;;;;5080259;28;20455;-81
2022/06/15 08:43:48;;;;;;;9.63;2.83;;;25.80;6.40;;;;;;5081380;28;20455;-81
2022/06/15 08:46:24;;;;;;;8.90;3.77;;;26.20;6.80;;;;;;5080752;28;20417;-81
2022/06/15 08:49:10;;;;;;;7.57;3.27;;;26.50;6.10;;;;;;5090016;22;20487;-83
2022/06/15 08:51:40;;;;;;;7.60;3.20;;;26.30;3.30;;;;;;5064757;28;20830;-83
2022/06/15 08:54:10;;;;;;;8.93;2.73;;;26.60;5.50;;;;;;5062202;28;20455;-83
2022/06/15 08:56:41;;;;;;;7.53;3.20;;;26.70;3.30;;;;;;5062521;28;20455;-83
2022/06/15 08:59:14;;;;;;;8.77;3.30;;;27.00;1.30;;;;;;5079160;28;20449;-83
2022/06/15 09:01:46;;;;;;;9.50;3.37;;;27.50;4.30;;;;;;5082374;28;20474;-83
2022/06/15 09:04:25;;;;;;;7.27;2.87;;;27.60;1.00;;;;;;5085905;28;20420;-83
2022/06/15 09:07:04;;;;;;;6.77;3.07;;;27.50;1.00;;;;;;5083539;28;20454;-83
2022/06/15 09:09:53;;;;;;;7.03;2.87;;;27.90;1.00;;;;;;5084999;28;20442;-83
2022/06/15 09:12:55;;;;;;;7.83;3.20;;;27.30;1.00;;;;;;5081850;28;20446;-83
2022/06/15 09:15:38;;;;;;;9.93;3.33;;;27.60;1.00;;;;;;5079970;28;20476;-83
2022/06/15 09:18:13;;;;;;;7.00;3.07;;;27.70;1.00;;;;;;5084384;28;20485;-82
2022/06/15 09:20:46;;;;;;;5.97;2.87;;;27.40;1.00;;;;;;5080574;28;20473;-83
2022/06/15 09:23:18;;;;;;;9.57;3.13;;;27.80;4.40;;;;;;5077997;28;20514;-83
2022/06/15 09:25:48;;;;;;;9.07;4.77;;;28.20;1.00;;;;;;5076442;28;20457;-83
2022/06/15 09:28:23;;;;;;;8.53;3.60;;;29.00;1.00;;;;;;5080153;28;20481;-83
2022/06/15 09:30:50;;;;;;;6.00;2.80;;;28.80;1.00;;;;;;5082718;28;20425;-82
2022/06/15 09:33:21;;;;;;;10.83;2.70;;;28.10;1.00;;;;;;5083939;28;20454;-83
2022/06/15 09:35:53;;;;;;;8.40;3.20;;;28.00;1.00;;;;;;5083074;28;20432;-84
2022/06/15 09:38:20;;;;;;;8.50;3.00;;;27.60;1.70;;;;;;5083279;28;21050;-84
2022/06/15 09:40:54;;;;;;;8.77;3.43;;;27.50;1.00;;;;;;5085657;28;20474;-83
2022/06/15 09:43:33;;;;;;;5.33;2.67;;;27.30;1.00;;;;;;5082295;28;20541;-83
2022/06/15 09:46:09;;;;;;;9.20;2.90;;;27.60;1.00;;;;;;5081341;28;20421;-83
2022/06/15 09:48:53;;;;;;;10.40;3.23;;;28.10;1.00;;;;;;5081302;28;20527;-83
2022/06/15 09:51:31;;;;;;;8.00;2.83;;;28.60;1.00;;;;;;5082194;28;20424;-83
2022/06/15 09:54:07;;;;;;;10.60;3.60;;;28.50;1.00;;;;;;5080346;28;20506;-83
2022/06/15 09:56:36;;;;;;;6.67;2.50;;;29.10;1.00;;;;;;5081919;28;20429;-83
2022/06/15 09:59:06;;;;;;;13.23;3.57;;;29.20;1.00;;;;;;5082374;28;20845;-82
2022/06/15 10:01:42;;;;;;;7.70;3.23;;;28.90;1.00;;;;;;5081896;28;20479;-83
2022/06/15 10:04:17;;;;;;;8.30;2.80;;;29.30;1.00;;;;;;5080726;28;20425;-83
2022/06/15 10:06:48;;;;;;;6.57;2.20;;;29.00;1.00;;;;;;5084537;28;20424;-82
2022/06/15 10:09:17;;;;;;;5.50;2.00;;;28.90;1.00;;;;;;5081724;28;20450;-83
2022/06/15 10:11:46;;;;;;;6.43;2.50;;;29.30;1.00;;;;;;5082119;28;20449;-83
2022/06/15 10:14:24;;;;;;;6.13;1.90;;;29.00;1.00;;;;;;5083595;28;20427;-83
2022/06/15 10:16:59;;;;;;;8.43;2.50;;;28.70;1.00;;;;;;5083889;28;20450;-82
2022/06/15 10:19:27;;;;;;;7.80;2.33;;;28.90;1.00;;;;;;5079530;28;20495;-83
2022/06/15 10:21:59;;;;;;;9.10;2.50;;;29.40;1.00;;;;;;5082029;28;20470;-84
2022/06/15 10:24:29;;;;;;;8.63;2.60;;;29.40;1.00;;;;;;5081894;28;20454;-84
2022/06/15 10:27:23;;;;;;;9.37;2.37;;;29.30;1.00;;;;;;5080760;28;20481;-83
2022/06/15 10:30:04;;;;;;;6.20;2.20;;;29.80;1.00;;;;;;5082020;28;20424;-83
2022/06/15 10:32:31;;;;;;;13.90;2.77;;;29.70;1.00;;;;;;5080610;28;20473;-83
2022/06/15 10:35:13;;;;;;;7.23;2.23;;;29.80;1.00;;;;;;5079671;28;20981;-83
2022/06/15 10:37:46;;;;;;;8.17;2.90;;;30.50;1.00;;;;;;5079612;28;20469;-83
2022/06/15 10:40:23;;;;;;;6.50;2.00;;;30.10;1.00;;;;;;5081925;28;20442;-83
2022/06/15 10:42:55;;;;;;;6.40;2.67;;;29.90;1.00;;;;;;5080951;28;20448;-83
2022/06/15 10:45:27;;;;;;;5.60;2.50;;;30.30;1.00;;;;;;5077891;28;20485;-83
2022/06/15 10:47:59;;;;;;;6.90;2.60;;;31.70;1.00;;;;;;5079283;28;20514;-83
2022/06/15 10:50:29;;;;;;;6.07;2.43;;;31.30;1.00;;;;;;5084543;28;20458;-83
2022/06/15 10:53:01;;;;;;;5.17;2.57;;;30.60;1.00;;;;;;5083661;28;20454;-83
2022/06/15 11:04:09;;;;;;;7.67;2.97;;;30.50;1.00;;;;;;5085183;28;20826;-83
2022/06/15 11:06:44;;;;;;;6.20;2.30;;;30.30;1.00;;;;;;5084434;28;20458;-83
2022/06/15 11:09:21;;;;;;;9.53;2.60;;;30.40;1.00;;;;;;5085047;28;20474;-81
2022/06/15 11:11:49;;;;;;;6.10;2.23;;;30.40;1.00;;;;;;5079362;28;20424;-81
2022/06/15 11:14:24;;;;;;;6.50;2.40;;;30.40;1.00;;;;;;5077272;28;20774;-82
2022/06/15 11:22:44;;;;;;;5.43;2.20;;;31.60;1.00;;;;;;5074722;28;20940;-82
2022/06/15 11:25:50;;;;;;;7.63;2.27;;;31.60;1.00;;;;;;5077269;28;20423;-84
2022/06/15 11:31:55;;;;;;;5.73;2.53;;;31.80;1.00;;;;;;5074262;28;20474;-83
2022/06/15 11:34:33;;;;;;;7.40;2.70;;;32.10;1.00;;;;;;5067981;28;20838;-83
2022/06/15 11:37:14;;;;;;;7.57;2.50;;;33.00;1.00;;;;;;5074948;28;20432;-85
2022/06/15 11:39:56;;;;;;;7.57;2.20;;;33.30;1.00;;;;;;5070634;28;20425;-84
2022/06/15 11:43:09;;;;;;;7.07;2.50;;;33.20;1.00;;;;;;5074717;28;20421;-87
2022/06/15 11:49:21;;;;;;;6.13;2.53;;;33.00;1.00;;;;;;5019420;28;20519;-88
2022/06/15 11:52:30;;;;;;;6.20;2.40;;;32.80;1.00;;;;;;5074966;28;20494;-84
2022/06/15 11:58:39;;;;;;;9.27;2.50;;;35.10;1.00;;;;;;5096444;22;20445;-82
2022/06/15 12:01:34;;;;;;;6.00;2.50;;;34.50;1.00;;;;;;5038737;28;20446;-83
2022/06/15 12:08:14;;;;;;;8.43;2.57;;;34.70;1.00;;;;;;5026508;28;20443;-83
2022/06/15 12:10:53;;;;;;;8.87;2.40;;;34.50;1.00;;;;;;5034790;28;20451;-83
2022/06/15 12:13:52;;;;;;;6.83;2.37;;;34.30;1.00;;;;;;5039611;28;20467;-85
2022/06/15 12:20:23;;;;;;;10.53;2.53;;;35.00;1.00;;;;;;3259530;26;20512;-83
2022/06/15 12:27:04;;;;;;;;;;;;;;;;;;;;;
2022/06/15 12:29:50;;;;;;;9.20;2.47;;;33.20;1.00;;;;;;5014754;28;20445;-86
2022/06/15 12:32:32;;;;;;;6.87;2.53;;;33.00;1.00;;;;;;5024714;28;20452;-87
2022/06/15 12:35:21;;;;;;;6.30;2.30;;;32.90;1.00;;;;;;5006261;28;20942;-86
2022/06/15 12:37:57;;;;;;;6.40;2.40;;;33.30;1.00;;;;;;5002155;28;20473;-85
2022/06/15 12:40:30;;;;;;;5.40;2.20;;;33.50;1.00;;;;;;5010400;28;20420;-86
2022/06/15 12:43:07;;;;;;;5.47;2.33;;;33.00;1.00;;;;;;5017184;28;20954;-86
2022/06/15 12:45:38;;;;;;;6.70;2.00;;;32.40;1.00;;;;;;5021826;28;20432;-84
2022/06/15 12:48:13;;;;;;;6.83;2.17;;;32.10;1.00;;;;;;5015533;28;20455;-86
2022/06/15 12:50:49;;;;;;;9.97;2.87;;;32.10;1.00;;;;;;5011351;28;20421;-87
2022/06/15 12:53:33;;;;;;;4.60;1.77;;;32.90;1.00;;;;;;5021526;28;20458;-85
2022/06/15 12:56:08;;;;;;;6.10;2.47;;;33.00;1.00;;;;;;5012407;28;20450;-85
2022/06/15 12:58:51;;;;;;;5.17;2.20;;;33.00;1.00;;;;;;5009817;28;20459;-85
2022/06/15 13:01:23;;;;;;;6.23;2.00;;;34.50;1.00;;;;;;5002548;28;20450;-86
2022/06/15 13:04:02;;;;;;;6.20;2.20;;;34.30;1.00;;;;;;5002097;28;20421;-85
2022/06/15 13:06:33;;;;;;;5.53;2.30;;;34.40;1.00;;;;;;5015081;28;20449;-86
2022/06/15 13:09:08;;;;;;;4.63;1.83;;;34.50;1.00;;;;;;5011036;28;20440;-86
2022/06/15 13:11:46;;;;;;;6.90;2.53;;;34.30;1.00;;;;;;5004528;28;20536;-86
2022/06/15 13:14:16;;;;;;;6.40;2.20;;;34.30;1.00;;;;;;5003196;28;20459;-85
2022/06/15 13:17:07;;;;;;;8.30;2.33;;;33.30;1.00;;;;;;5009836;28;20450;-86
2022/06/15 13:19:54;;;;;;;4.97;2.00;;;33.50;1.00;;;;;;5003313;28;20468;-86
2022/06/15 13:22:25;;;;;;;5.83;2.13;;;32.60;1.00;;;;;;5004531;28;20457;-85
2022/06/15 13:24:57;;;;;;;7.10;2.33;;;33.10;1.00;;;;;;5008464;28;20476;-86
2022/06/15 13:27:43;;;;;;;4.93;2.03;;;33.40;1.00;;;;;;5023142;28;20519;-85
2022/06/15 13:30:22;;;;;;;7.43;2.40;;;34.00;1.00;;;;;;5014765;28;20544;-86
2022/06/15 13:33:02;;;;;;;5.53;2.40;;;34.50;1.00;;;;;;5108724;27;20596;-85
2022/06/15 13:35:33;;;;;;;5.23;1.77;;;34.00;1.00;;;;;;5103924;28;20438;-85
2022/06/15 13:41:24;;;;;;;6.50;2.30;;;33.80;1.00;;;;;;5075857;28;20441;-84
2022/06/15 13:44:28;;;;;;;6.57;2.70;;;33.10;1.00;;;;;;5074121;28;20461;-85